createdAt,value
2017-09-13T00:00:42.807Z,0
2017-09-13T00:01:52.839Z,0
2017-09-13T00:03:03.545Z,0
2017-09-13T00:04:13.889Z,0
2017-09-13T00:05:23.907Z,0
2017-09-13T00:06:33.930Z,0
2017-09-13T00:07:44.328Z,0
2017-09-13T00:08:54.669Z,0
2017-09-13T00:10:04.710Z,0
2017-09-13T00:11:15.053Z,0
2017-09-13T00:12:25.079Z,0
2017-09-13T00:13:35.156Z,0
2017-09-13T00:14:45.204Z,0
2017-09-13T00:15:55.542Z,0
2017-09-13T00:17:05.914Z,0
2017-09-13T00:18:16.299Z,0
2017-09-13T00:19:26.661Z,0
2017-09-13T00:20:36.685Z,0
2017-09-13T00:21:46.698Z,0
2017-09-13T00:22:57.038Z,0
2017-09-13T00:24:07.076Z,0
2017-09-13T00:25:17.471Z,0
2017-09-13T00:26:27.818Z,0
2017-09-13T00:27:38.160Z,0
2017-09-13T00:28:48.516Z,0
2017-09-13T00:29:58.551Z,0
2017-09-13T00:31:15.819Z,0
2017-09-13T00:32:26.159Z,0
2017-09-13T00:33:38.943Z,0
2017-09-13T00:34:49.289Z,0
2017-09-13T00:35:59.320Z,0
2017-09-13T00:37:09.345Z,0
2017-09-13T00:38:19.699Z,0
2017-09-13T00:39:30.042Z,0
2017-09-13T00:40:40.390Z,0
2017-09-13T00:41:50.418Z,0
2017-09-13T00:43:00.804Z,0
2017-09-13T00:44:11.138Z,0
2017-09-13T00:45:21.466Z,0
2017-09-13T00:46:32.247Z,0
2017-09-13T00:47:42.588Z,0
2017-09-13T00:48:52.915Z,0
2017-09-13T00:50:03.272Z,0
2017-09-13T00:51:17.632Z,0
2017-09-13T00:52:28.001Z,0
2017-09-13T00:53:38.034Z,0
2017-09-13T00:54:48.052Z,0
2017-09-13T00:55:58.403Z,0
2017-09-13T00:57:08.745Z,0
2017-09-13T00:58:18.449Z,0
2017-09-13T00:59:29.017Z,0
2017-09-13T01:00:39.379Z,0
2017-09-13T01:01:49.723Z,0
2017-09-13T01:03:00.056Z,0
2017-09-13T01:04:10.088Z,0
2017-09-13T01:05:20.429Z,0
2017-09-13T01:06:30.856Z,0
2017-09-13T01:07:41.213Z,0
2017-09-13T01:08:51.540Z,0
2017-09-13T01:10:01.886Z,0
2017-09-13T01:11:12.229Z,0
2017-09-13T01:12:26.810Z,0
2017-09-13T01:13:37.161Z,0
2017-09-13T01:14:56.873Z,0
2017-09-13T01:16:07.230Z,0
2017-09-13T01:17:17.579Z,0
2017-09-13T01:18:27.923Z,0
2017-09-13T01:19:38.262Z,0
2017-09-13T01:20:48.603Z,0
2017-09-13T01:21:58.944Z,0
2017-09-13T01:23:09.286Z,0
2017-09-13T01:24:19.635Z,0
2017-09-13T01:25:29.338Z,0
2017-09-13T01:26:39.666Z,0
2017-09-13T01:27:50.012Z,0
2017-09-13T01:29:00.086Z,0
2017-09-13T01:30:10.453Z,0
2017-09-13T01:31:20.768Z,0
2017-09-13T01:32:31.134Z,0
2017-09-13T01:33:41.152Z,0
2017-09-13T01:34:51.240Z,0
2017-09-13T01:36:01.591Z,0
2017-09-13T01:37:11.937Z,0
2017-09-13T01:38:22.507Z,0
2017-09-13T01:39:32.836Z,0
2017-09-13T01:40:43.219Z,0
2017-09-13T01:41:53.589Z,0
2017-09-13T01:43:03.928Z,0
2017-09-13T01:44:13.947Z,0
2017-09-13T01:45:24.286Z,0
2017-09-13T01:46:34.678Z,0
2017-09-13T01:47:44.688Z,0
2017-09-13T01:48:58.219Z,0
2017-09-13T01:50:08.759Z,0
2017-09-13T01:51:18.770Z,0
2017-09-13T01:52:28.787Z,0
2017-09-13T01:53:38.802Z,0
2017-09-13T01:54:49.140Z,0
2017-09-13T01:55:58.841Z,0
2017-09-13T01:57:08.862Z,0
2017-09-13T01:58:19.195Z,0
2017-09-13T01:59:29.541Z,0
2017-09-13T02:00:39.568Z,0
2017-09-13T02:01:49.914Z,0
2017-09-13T02:03:00.251Z,0
2017-09-13T02:04:10.608Z,0
2017-09-13T02:05:21.165Z,0
2017-09-13T02:06:31.185Z,0
2017-09-13T02:07:41.530Z,0
2017-09-13T02:08:51.881Z,0
2017-09-13T02:10:02.282Z,0
2017-09-13T02:11:12.634Z,0
2017-09-13T02:12:22.982Z,0
2017-09-13T02:13:33.337Z,0
2017-09-13T02:14:43.684Z,0
2017-09-13T02:15:53.756Z,0
2017-09-13T02:17:03.794Z,0
2017-09-13T02:18:13.852Z,0
2017-09-13T02:19:24.203Z,0
2017-09-13T02:20:34.231Z,0
2017-09-13T02:21:44.573Z,0
2017-09-13T02:22:59.384Z,0
2017-09-13T02:24:09.102Z,0
2017-09-13T02:25:19.442Z,0
2017-09-13T02:26:29.792Z,0
2017-09-13T02:27:39.873Z,0
2017-09-13T02:28:49.266Z,0
2017-09-13T02:29:59.607Z,0
2017-09-13T02:31:09.955Z,0
2017-09-13T02:32:19.664Z,0
2017-09-13T02:33:36.553Z,0
2017-09-13T02:34:46.894Z,0
2017-09-13T02:35:57.222Z,0
2017-09-13T02:37:07.258Z,0
2017-09-13T02:38:17.300Z,0
2017-09-13T02:39:27.698Z,0
2017-09-13T02:40:38.037Z,0
2017-09-13T02:41:48.377Z,0
2017-09-13T02:42:58.721Z,0
2017-09-13T02:44:09.065Z,0
2017-09-13T02:45:19.477Z,0
2017-09-13T02:46:33.519Z,0
2017-09-13T02:47:43.890Z,0
2017-09-13T02:48:53.931Z,0
2017-09-13T02:50:04.270Z,0
2017-09-13T02:51:14.619Z,0
2017-09-13T02:52:24.636Z,0
2017-09-13T02:53:34.338Z,0
2017-09-13T02:54:44.364Z,0
2017-09-13T02:55:54.708Z,0
2017-09-13T02:57:05.052Z,0
2017-09-13T02:58:15.396Z,0
2017-09-13T02:59:25.727Z,0
2017-09-13T03:00:41.228Z,0
2017-09-13T03:01:51.575Z,0
2017-09-13T03:33:53.260Z,0
2017-09-13T03:35:03.270Z,0
2017-09-13T03:36:16.142Z,0
2017-09-13T03:37:26.474Z,0
2017-09-13T03:38:36.811Z,0
2017-09-13T03:39:47.158Z,0
2017-09-13T03:40:57.729Z,0
2017-09-13T03:42:08.064Z,0
2017-09-13T03:43:18.090Z,0
2017-09-13T03:44:27.806Z,0
2017-09-13T03:45:38.192Z,0
2017-09-13T03:46:48.208Z,0
2017-09-13T03:47:58.273Z,0
2017-09-13T03:49:08.614Z,0
2017-09-13T03:50:18.630Z,0
2017-09-13T03:51:28.978Z,0
2017-09-13T03:52:39.324Z,0
2017-09-13T03:53:49.030Z,0
2017-09-13T03:54:59.601Z,0
2017-09-13T03:56:11.948Z,0
2017-09-13T03:57:21.646Z,0
2017-09-13T03:58:34.325Z,0
2017-09-13T03:59:44.670Z,0
2017-09-13T04:00:55.000Z,0
2017-09-13T04:02:05.331Z,0
2017-09-13T04:03:15.394Z,0
2017-09-13T04:04:25.729Z,0
2017-09-13T04:05:35.738Z,0
2017-09-13T04:06:46.067Z,0
2017-09-13T04:07:56.985Z,0
2017-09-13T04:09:06.742Z,0
2017-09-13T04:10:17.070Z,0
2017-09-13T04:11:27.410Z,0
2017-09-13T04:12:40.541Z,0
2017-09-13T04:13:50.881Z,0
2017-09-13T04:15:00.962Z,0
2017-09-13T04:16:11.506Z,0
2017-09-13T04:17:21.854Z,0
2017-09-13T04:18:31.892Z,0
2017-09-13T04:19:41.914Z,0
2017-09-13T04:20:52.249Z,0
2017-09-13T04:22:02.263Z,0
2017-09-13T04:23:12.319Z,0
2017-09-13T04:24:22.711Z,0
2017-09-13T04:25:32.408Z,5
2017-09-13T04:26:42.755Z,5
2017-09-13T04:27:53.098Z,5
2017-09-13T04:29:02.793Z,5
2017-09-13T04:30:12.876Z,5
2017-09-13T04:31:23.225Z,5
2017-09-13T04:32:33.802Z,5
2017-09-13T04:33:43.822Z,10
2017-09-13T04:34:54.174Z,10
2017-09-13T04:36:04.514Z,10
2017-09-13T04:37:14.561Z,10
2017-09-13T04:38:24.263Z,15
2017-09-13T04:39:34.622Z,15
2017-09-13T04:40:44.990Z,25
2017-09-13T04:41:55.386Z,45
2017-09-13T04:43:05.714Z,55
2017-09-13T04:44:16.056Z,60
2017-09-13T04:45:26.398Z,55
2017-09-13T04:46:36.720Z,50
2017-09-13T04:47:47.060Z,35
2017-09-13T04:48:57.404Z,25
2017-09-13T04:50:07.435Z,25
2017-09-13T04:51:17.786Z,25
2017-09-13T04:52:28.152Z,30
2017-09-13T04:53:42.031Z,30
2017-09-13T04:54:52.557Z,30
2017-09-13T04:56:05.592Z,30
2017-09-13T04:57:15.629Z,30
2017-09-13T04:58:25.972Z,35
2017-09-13T04:59:36.368Z,35
2017-09-13T05:00:46.912Z,35
2017-09-13T05:01:57.238Z,35
2017-09-13T05:03:07.588Z,35
2017-09-13T05:04:17.616Z,40
2017-09-13T05:05:42.562Z,40
2017-09-13T05:06:52.610Z,45
2017-09-13T05:08:02.942Z,45
2017-09-13T05:09:13.305Z,45
2017-09-13T05:10:23.849Z,45
2017-09-13T05:11:34.243Z,50
2017-09-13T05:12:44.571Z,50
2017-09-13T05:13:54.941Z,50
2017-09-13T05:15:05.310Z,50
2017-09-13T05:16:15.656Z,50
2017-09-13T05:17:25.981Z,50
2017-09-13T05:18:36.324Z,50
2017-09-13T05:19:46.655Z,55
2017-09-13T05:20:56.366Z,55
2017-09-13T05:22:06.418Z,55
2017-09-13T05:23:16.784Z,55
2017-09-13T05:24:26.800Z,60
2017-09-13T05:25:36.523Z,60
2017-09-13T05:26:46.879Z,60
2017-09-13T05:27:57.234Z,60
2017-09-13T05:29:07.612Z,65
2017-09-13T05:30:17.959Z,65
2017-09-13T05:31:27.989Z,65
2017-09-13T05:32:39.769Z,65
2017-09-13T05:33:50.100Z,75
2017-09-13T05:34:59.181Z,90
2017-09-13T05:36:09.519Z,90
2017-09-13T05:37:19.548Z,80
2017-09-13T05:38:29.878Z,70
2017-09-13T05:39:40.212Z,70
2017-09-13T05:40:54.516Z,80
2017-09-13T05:42:04.542Z,85
2017-09-13T05:43:14.906Z,85
2017-09-13T05:44:25.247Z,85
2017-09-13T05:45:37.568Z,75
2017-09-13T05:46:47.975Z,75
2017-09-13T05:47:58.341Z,80
2017-09-13T05:49:08.698Z,85
2017-09-13T05:50:19.241Z,85
2017-09-13T05:51:29.269Z,80
2017-09-13T05:52:39.664Z,80
2017-09-13T05:53:49.986Z,80
2017-09-13T05:55:00.360Z,80
2017-09-13T05:56:10.711Z,80
2017-09-13T05:57:20.406Z,80
2017-09-13T05:58:37.833Z,80
2017-09-13T05:59:48.199Z,85
2017-09-13T06:00:58.541Z,85
2017-09-13T06:02:08.569Z,85
2017-09-13T06:03:18.614Z,85
2017-09-13T06:04:28.640Z,85
2017-09-13T06:05:38.975Z,85
2017-09-13T06:06:49.305Z,90
2017-09-13T06:07:59.351Z,90
2017-09-13T06:09:09.686Z,90
2017-09-13T06:10:20.045Z,90
2017-09-13T06:11:30.406Z,90
2017-09-13T06:12:48.448Z,90
2017-09-13T06:13:58.491Z,95
2017-09-13T06:15:08.517Z,95
2017-09-13T06:16:18.275Z,95
2017-09-13T06:17:30.256Z,95
2017-09-13T06:18:40.604Z,95
2017-09-13T06:19:50.949Z,95
2017-09-13T06:21:01.296Z,95
2017-09-13T06:22:11.627Z,95
2017-09-13T06:23:21.661Z,95
2017-09-13T06:24:32.022Z,95
2017-09-13T06:25:42.383Z,100
2017-09-13T06:26:52.720Z,105
2017-09-13T06:28:03.102Z,100
2017-09-13T06:29:13.438Z,100
2017-09-13T06:30:23.475Z,100
2017-09-13T06:31:33.512Z,100
2017-09-13T06:32:43.840Z,105
2017-09-13T06:33:54.190Z,105
2017-09-13T06:35:04.222Z,105
2017-09-13T06:36:14.573Z,105
2017-09-13T06:37:24.596Z,105
2017-09-13T06:38:34.940Z,105
2017-09-13T06:39:45.281Z,105
2017-09-13T06:40:55.306Z,105
2017-09-13T06:42:05.657Z,105
2017-09-13T06:43:20.100Z,110
2017-09-13T06:44:29.831Z,110
2017-09-13T06:45:40.173Z,110
2017-09-13T06:46:50.212Z,110
2017-09-13T06:48:00.586Z,110
2017-09-13T06:49:11.171Z,110
2017-09-13T06:50:21.187Z,110
2017-09-13T06:51:31.578Z,110
2017-09-13T06:52:41.614Z,110
2017-09-13T06:53:54.820Z,115
2017-09-13T06:55:05.238Z,110
2017-09-13T06:56:17.991Z,110
2017-09-13T06:57:28.032Z,115
2017-09-13T06:58:38.060Z,115
2017-09-13T06:59:48.417Z,115
2017-09-13T07:00:58.777Z,115
2017-09-13T07:02:09.145Z,115
2017-09-13T07:03:19.507Z,115
2017-09-13T07:04:29.846Z,115
2017-09-13T07:05:39.881Z,115
2017-09-13T07:06:50.229Z,115
2017-09-13T07:08:00.597Z,115
2017-09-13T07:09:10.994Z,120
2017-09-13T07:10:21.340Z,120
2017-09-13T07:11:31.688Z,120
2017-09-13T07:12:42.069Z,120
2017-09-13T07:13:51.793Z,120
2017-09-13T07:15:02.197Z,120
2017-09-13T07:16:12.238Z,120
2017-09-13T07:17:22.606Z,120
2017-09-13T07:18:32.317Z,120
2017-09-13T07:19:42.661Z,125
2017-09-13T07:20:53.021Z,125
2017-09-13T07:22:03.360Z,125
2017-09-13T07:23:13.078Z,125
2017-09-13T07:24:23.434Z,125
2017-09-13T07:25:33.459Z,125
2017-09-13T07:26:43.857Z,130
2017-09-13T07:27:53.575Z,130
2017-09-13T07:29:03.919Z,130
2017-09-13T07:30:14.285Z,130
2017-09-13T07:31:24.303Z,130
2017-09-13T07:32:34.699Z,135
2017-09-13T07:33:45.042Z,135
2017-09-13T07:34:55.394Z,135
2017-09-13T07:36:05.430Z,135
2017-09-13T07:37:15.463Z,135
2017-09-13T07:38:25.849Z,135
2017-09-13T07:39:36.465Z,135
2017-09-13T07:40:46.834Z,135
2017-09-13T07:41:57.179Z,135
2017-09-13T07:43:07.539Z,140
2017-09-13T07:44:17.935Z,140
2017-09-13T07:45:28.293Z,140
2017-09-13T07:46:38.326Z,140
2017-09-13T07:47:48.348Z,140
2017-09-13T07:48:58.699Z,140
2017-09-13T07:50:10.489Z,140
2017-09-13T07:51:20.867Z,140
2017-09-13T07:52:31.214Z,145
2017-09-13T07:53:41.568Z,145
2017-09-13T07:54:51.912Z,145
2017-09-13T07:56:02.316Z,145
2017-09-13T07:57:12.661Z,145
2017-09-13T07:58:23.019Z,145
2017-09-13T07:59:35.285Z,145
2017-09-13T08:00:45.647Z,150
2017-09-13T08:01:55.739Z,150
2017-09-13T08:03:06.077Z,150
2017-09-13T08:04:16.434Z,150
2017-09-13T08:05:26.768Z,150
2017-09-13T08:06:37.111Z,150
2017-09-13T08:07:47.134Z,155
2017-09-13T08:08:57.155Z,155
2017-09-13T08:10:07.510Z,155
2017-09-13T08:11:17.869Z,155
2017-09-13T08:12:28.229Z,155
2017-09-13T08:13:38.637Z,155
2017-09-13T08:14:48.999Z,160
2017-09-13T08:15:59.050Z,160
2017-09-13T08:17:09.408Z,160
2017-09-13T08:18:19.428Z,160
2017-09-13T08:19:34.250Z,160
2017-09-13T08:20:44.603Z,160
2017-09-13T08:21:54.626Z,160
2017-09-13T08:23:04.330Z,160
2017-09-13T08:24:14.686Z,165
2017-09-13T08:25:25.033Z,160
2017-09-13T08:26:35.063Z,160
2017-09-13T08:27:45.423Z,165
2017-09-13T08:28:55.806Z,165
2017-09-13T08:30:05.831Z,160
2017-09-13T08:31:16.224Z,160
2017-09-13T08:32:26.241Z,160
2017-09-13T08:33:36.587Z,165
2017-09-13T08:34:46.615Z,165
2017-09-13T08:35:56.969Z,165
2017-09-13T08:37:07.317Z,165
2017-09-13T08:38:17.663Z,165
2017-09-13T08:39:28.013Z,165
2017-09-13T08:40:38.419Z,170
2017-09-13T08:41:48.784Z,170
2017-09-13T08:42:59.185Z,170
2017-09-13T08:44:09.555Z,170
2017-09-13T08:45:19.914Z,170
2017-09-13T08:46:32.285Z,170
2017-09-13T08:47:42.044Z,170
2017-09-13T08:48:55.389Z,170
2017-09-13T08:50:05.776Z,170
2017-09-13T08:51:16.174Z,170
2017-09-13T08:52:26.978Z,170
2017-09-13T08:53:37.591Z,175
2017-09-13T08:54:48.005Z,175
2017-09-13T08:55:58.378Z,175
2017-09-13T08:57:08.801Z,180
2017-09-13T08:58:19.197Z,175
2017-09-13T08:59:28.936Z,175
2017-09-13T09:00:39.383Z,175
2017-09-13T09:01:49.479Z,175
2017-09-13T09:02:59.907Z,180
2017-09-13T09:04:10.278Z,180
2017-09-13T09:05:20.369Z,180
2017-09-13T09:06:30.523Z,180
2017-09-13T09:07:41.698Z,180
2017-09-13T09:08:51.765Z,185
2017-09-13T09:10:03.184Z,185
2017-09-13T09:11:19.803Z,185
2017-09-13T09:12:29.558Z,185
2017-09-13T09:13:39.998Z,190
2017-09-13T09:14:50.444Z,190
2017-09-13T09:16:00.560Z,195
2017-09-13T09:17:10.980Z,195
2017-09-13T09:18:24.251Z,200
2017-09-13T09:19:34.691Z,205
2017-09-13T09:20:44.893Z,205
2017-09-13T09:21:55.344Z,205
2017-09-13T09:23:06.599Z,200
2017-09-13T09:24:16.998Z,205
2017-09-13T09:25:27.370Z,195
2017-09-13T09:26:37.426Z,190
2017-09-13T09:27:47.788Z,190
2017-09-13T09:28:57.829Z,190
2017-09-13T09:30:08.191Z,195
2017-09-13T09:31:18.539Z,195
2017-09-13T09:32:28.904Z,190
2017-09-13T09:33:39.243Z,190
2017-09-13T09:34:49.510Z,195
2017-09-13T09:35:59.534Z,195
2017-09-13T09:37:09.897Z,195
2017-09-13T09:38:19.948Z,195
2017-09-13T09:39:32.424Z,195
2017-09-13T09:40:44.354Z,195
2017-09-13T09:41:54.083Z,195
2017-09-13T09:43:04.446Z,195
2017-09-13T09:44:14.490Z,195
2017-09-13T09:45:24.865Z,195
2017-09-13T09:46:35.268Z,195
2017-09-13T09:47:45.332Z,195
2017-09-13T09:48:55.727Z,200
2017-09-13T09:50:06.079Z,200
2017-09-13T09:51:16.427Z,200
2017-09-13T09:52:26.209Z,200
2017-09-13T09:53:37.008Z,200
2017-09-13T09:54:50.893Z,200
2017-09-13T09:56:01.248Z,200
2017-09-13T09:57:11.297Z,205
2017-09-13T09:58:21.642Z,205
2017-09-13T09:59:31.990Z,205
2017-09-13T10:00:42.342Z,210
2017-09-13T10:01:52.370Z,215
2017-09-13T10:03:02.742Z,210
2017-09-13T10:04:13.135Z,215
2017-09-13T10:05:23.484Z,220
2017-09-13T10:06:33.824Z,230
2017-09-13T10:07:48.984Z,230
2017-09-13T10:08:59.354Z,235
2017-09-13T10:10:09.776Z,245
2017-09-13T10:11:19.511Z,255
2017-09-13T10:12:29.541Z,245
2017-09-13T10:13:39.602Z,255
2017-09-13T10:14:49.966Z,260
2017-09-13T10:16:00.318Z,220
2017-09-13T10:17:10.676Z,285
2017-09-13T10:18:21.269Z,245
2017-09-13T10:19:31.625Z,255
2017-09-13T10:20:41.988Z,260
2017-09-13T10:21:52.050Z,245
2017-09-13T10:23:02.091Z,240
2017-09-13T10:24:12.118Z,230
2017-09-13T10:25:22.476Z,220
2017-09-13T10:26:32.846Z,205
2017-09-13T10:27:42.881Z,200
2017-09-13T10:28:53.227Z,185
2017-09-13T10:30:03.592Z,170
2017-09-13T10:31:13.959Z,165
2017-09-13T10:32:24.335Z,160
2017-09-13T10:33:34.747Z,165
2017-09-13T10:34:45.111Z,180
2017-09-13T10:35:55.462Z,180
2017-09-13T10:37:05.505Z,220
2017-09-13T10:38:15.859Z,220
2017-09-13T10:39:25.949Z,215
2017-09-13T10:40:36.493Z,215
2017-09-13T10:41:46.846Z,215
2017-09-13T10:42:57.240Z,215
2017-09-13T10:44:07.579Z,215
2017-09-13T10:45:17.671Z,220
2017-09-13T10:46:28.039Z,225
2017-09-13T10:47:38.069Z,225
2017-09-13T10:48:48.113Z,225
2017-09-13T10:49:58.134Z,230
2017-09-13T10:51:08.495Z,230
2017-09-13T10:52:18.851Z,240
2017-09-13T10:53:28.894Z,185
2017-09-13T10:54:39.246Z,230
2017-09-13T10:55:49.318Z,260
2017-09-13T10:56:59.372Z,255
2017-09-13T10:58:10.975Z,175
2017-09-13T10:59:21.343Z,180
2017-09-13T11:00:31.719Z,200
2017-09-13T11:01:42.106Z,205
2017-09-13T11:02:52.505Z,195
2017-09-13T11:04:03.145Z,195
2017-09-13T11:05:13.176Z,200
2017-09-13T11:06:23.215Z,230
2017-09-13T11:07:33.802Z,275
2017-09-13T11:08:43.897Z,240
2017-09-13T11:09:54.253Z,230
2017-09-13T11:11:04.303Z,240
2017-09-13T11:12:14.678Z,240
2017-09-13T11:13:25.029Z,250
2017-09-13T11:14:35.411Z,250
2017-09-13T11:15:45.764Z,250
2017-09-13T11:16:56.134Z,260
2017-09-13T11:18:06.162Z,275
2017-09-13T11:19:16.519Z,320
2017-09-13T11:20:26.294Z,275
2017-09-13T11:21:36.322Z,255
2017-09-13T11:22:46.687Z,250
2017-09-13T11:23:57.054Z,260
2017-09-13T11:25:07.093Z,265
2017-09-13T11:26:17.452Z,245
2017-09-13T11:27:27.171Z,260
2017-09-13T11:28:37.234Z,270
2017-09-13T11:29:47.597Z,265
2017-09-13T11:30:57.958Z,220
2017-09-13T11:32:08.363Z,220
2017-09-13T11:33:18.411Z,250
2017-09-13T11:34:28.772Z,210
2017-09-13T11:35:39.143Z,220
2017-09-13T11:36:49.195Z,210
2017-09-13T11:37:59.558Z,215
2017-09-13T11:39:09.914Z,215
2017-09-13T11:40:19.322Z,210
2017-09-13T11:41:29.729Z,205
2017-09-13T11:42:40.083Z,210
2017-09-13T11:43:50.510Z,210
2017-09-13T11:45:00.551Z,215
2017-09-13T11:46:10.590Z,230
2017-09-13T11:47:20.954Z,250
2017-09-13T11:48:31.311Z,245
2017-09-13T11:49:41.683Z,235
2017-09-13T11:50:52.051Z,240
2017-09-13T11:52:02.397Z,220
2017-09-13T11:53:12.754Z,210
2017-09-13T11:54:22.477Z,215
2017-09-13T11:55:32.921Z,225
2017-09-13T11:56:42.973Z,215
2017-09-13T11:57:53.317Z,215
2017-09-13T11:59:03.682Z,225
2017-09-13T12:00:14.025Z,225
2017-09-13T12:01:24.532Z,230
2017-09-13T12:02:35.135Z,220
2017-09-13T12:03:45.499Z,215
2017-09-13T12:04:55.871Z,215
2017-09-13T12:06:05.913Z,205
2017-09-13T12:07:16.020Z,210
2017-09-13T12:08:26.378Z,225
2017-09-13T12:09:36.730Z,225
2017-09-13T12:10:47.080Z,230
2017-09-13T12:11:57.125Z,230
2017-09-13T12:13:07.488Z,235
2017-09-13T12:14:18.571Z,240
2017-09-13T12:15:28.633Z,285
2017-09-13T12:16:38.991Z,300
2017-09-13T12:17:50.870Z,320
2017-09-13T12:19:01.287Z,310
2017-09-13T12:20:11.679Z,310
2017-09-13T12:21:21.726Z,310
2017-09-13T12:22:32.089Z,280
2017-09-13T12:23:42.135Z,305
2017-09-13T12:24:52.567Z,270
2017-09-13T12:26:02.613Z,235
2017-09-13T12:27:12.997Z,235
2017-09-13T12:28:23.358Z,260
2017-09-13T12:29:33.441Z,225
2017-09-13T12:30:43.853Z,225
2017-09-13T12:31:54.227Z,235
2017-09-13T12:33:04.584Z,230
2017-09-13T12:34:14.316Z,230
2017-09-13T12:35:24.364Z,255
2017-09-13T12:36:34.791Z,260
2017-09-13T12:37:45.153Z,225
2017-09-13T12:38:55.508Z,210
2017-09-13T12:40:05.867Z,190
2017-09-13T12:41:16.231Z,180
2017-09-13T12:42:26.345Z,175
2017-09-13T12:43:36.720Z,175
2017-09-13T12:44:46.759Z,180
2017-09-13T12:45:57.135Z,190
2017-09-13T12:47:07.186Z,205
2017-09-13T12:48:17.282Z,215
2017-09-13T12:49:27.648Z,215
2017-09-13T12:50:38.170Z,215
2017-09-13T12:51:48.535Z,210
2017-09-13T12:52:58.575Z,205
2017-09-13T12:54:08.990Z,210
2017-09-13T12:55:19.035Z,210
2017-09-13T12:56:29.409Z,200
2017-09-13T12:57:39.700Z,195
2017-09-13T12:58:50.104Z,180
2017-09-13T12:59:59.882Z,145
2017-09-13T13:01:09.928Z,130
2017-09-13T13:02:20.299Z,120
2017-09-13T13:03:30.631Z,105
2017-09-13T13:04:40.978Z,105
2017-09-13T13:05:51.083Z,105
2017-09-13T13:07:01.467Z,100
2017-09-13T13:08:11.820Z,95
2017-09-13T13:09:22.180Z,90
2017-09-13T13:10:32.216Z,95
2017-09-13T13:11:42.574Z,105
2017-09-13T13:12:52.949Z,115
2017-09-13T13:14:02.673Z,140
2017-09-13T13:15:13.041Z,160
2017-09-13T13:16:23.431Z,180
2017-09-13T13:17:33.862Z,195
2017-09-13T13:18:44.248Z,210
2017-09-13T13:19:54.611Z,200
2017-09-13T13:21:04.968Z,185
2017-09-13T13:22:14.994Z,185
2017-09-13T13:23:25.500Z,180
2017-09-13T13:24:35.854Z,180
2017-09-13T13:25:46.231Z,180
2017-09-13T13:26:56.598Z,185
2017-09-13T13:28:07.006Z,185
2017-09-13T13:29:17.416Z,185
2017-09-13T13:30:27.767Z,180
2017-09-13T13:31:38.833Z,170
2017-09-13T13:32:49.184Z,160
2017-09-13T13:33:59.267Z,150
2017-09-13T13:35:09.728Z,145
2017-09-13T13:36:20.098Z,140
2017-09-13T13:37:30.146Z,140
2017-09-13T13:38:40.508Z,130
2017-09-13T13:39:50.886Z,130
2017-09-13T13:41:01.301Z,120
2017-09-13T13:42:11.351Z,115
2017-09-13T13:43:21.067Z,115
2017-09-13T13:44:31.452Z,110
2017-09-13T13:45:41.494Z,110
2017-09-13T13:46:51.851Z,105
2017-09-13T13:48:02.217Z,100
2017-09-13T13:49:12.566Z,105
2017-09-13T13:50:22.905Z,100
2017-09-13T13:51:33.264Z,105
2017-09-13T13:52:43.674Z,100
2017-09-13T13:53:56.245Z,90
2017-09-13T13:55:06.597Z,85
2017-09-13T13:56:16.635Z,85
2017-09-13T13:57:26.995Z,85
2017-09-13T13:58:37.418Z,90
2017-09-13T13:59:47.970Z,90
2017-09-13T14:00:58.332Z,95
2017-09-13T14:02:08.376Z,100
2017-09-13T14:03:18.415Z,95
2017-09-13T14:04:28.842Z,85
2017-09-13T14:05:39.214Z,75
2017-09-13T14:06:49.240Z,75
2017-09-13T14:07:59.307Z,70
2017-09-13T14:09:09.681Z,65
2017-09-13T14:10:19.797Z,60
2017-09-13T14:11:29.848Z,60
2017-09-13T14:12:40.214Z,55
2017-09-13T14:13:49.615Z,55
2017-09-13T14:14:59.996Z,55
2017-09-13T14:16:10.402Z,55
2017-09-13T14:17:20.992Z,55
2017-09-13T14:18:31.050Z,50
2017-09-13T14:19:41.096Z,50
2017-09-13T14:20:53.561Z,45
2017-09-13T14:22:03.982Z,50
2017-09-13T14:23:14.330Z,50
2017-09-13T14:24:24.693Z,45
2017-09-13T14:25:34.743Z,40
2017-09-13T14:26:44.777Z,40
2017-09-13T14:27:54.874Z,40
2017-09-13T14:29:05.255Z,40
2017-09-13T14:30:15.351Z,40
2017-09-13T14:31:25.369Z,40
2017-09-13T14:32:35.416Z,35
2017-09-13T14:33:45.812Z,35
2017-09-13T14:34:55.867Z,35
2017-09-13T14:36:05.941Z,30
2017-09-13T14:37:15.999Z,30
2017-09-13T14:38:26.371Z,30
2017-09-13T14:39:36.461Z,30
2017-09-13T14:40:46.511Z,30
2017-09-13T14:41:56.550Z,30
2017-09-13T14:43:06.937Z,25
2017-09-13T14:44:17.275Z,25
2017-09-13T14:45:27.387Z,25
2017-09-13T14:46:37.757Z,25
2017-09-13T14:47:48.118Z,25
2017-09-13T14:48:58.170Z,25
2017-09-13T14:50:08.521Z,25
2017-09-13T14:51:18.612Z,30
2017-09-13T14:52:28.979Z,35
2017-09-13T14:53:39.343Z,40
2017-09-13T14:54:49.416Z,40
2017-09-13T14:55:59.492Z,45
2017-09-13T14:57:09.904Z,45
2017-09-13T14:58:20.274Z,45
2017-09-13T14:59:30.626Z,50
2017-09-13T15:00:40.659Z,50
2017-09-13T15:01:51.000Z,50
2017-09-13T15:03:01.436Z,45
2017-09-13T15:04:11.485Z,45
2017-09-13T15:05:21.233Z,40
2017-09-13T15:06:31.660Z,40
2017-09-13T15:07:42.011Z,35
2017-09-13T15:08:52.354Z,35
2017-09-13T15:10:02.750Z,35
2017-09-13T15:11:12.471Z,35
2017-09-13T15:12:25.189Z,35
2017-09-13T15:13:35.231Z,40
2017-09-13T15:14:45.618Z,40
2017-09-13T15:15:55.960Z,40
2017-09-13T15:17:06.003Z,40
2017-09-13T15:18:16.359Z,40
2017-09-13T15:19:26.720Z,45
2017-09-13T15:20:37.114Z,40
2017-09-13T15:21:47.159Z,40
2017-09-13T15:22:57.553Z,35
2017-09-13T15:24:07.902Z,35
2017-09-13T15:25:18.250Z,30
2017-09-13T15:26:28.664Z,30
2017-09-13T15:27:38.699Z,25
2017-09-13T15:28:49.055Z,25
2017-09-13T15:30:00.102Z,25
2017-09-13T15:31:10.500Z,25
2017-09-13T15:32:20.890Z,25
2017-09-13T15:33:31.249Z,25
2017-09-13T15:34:41.326Z,25
2017-09-13T15:35:51.687Z,20
2017-09-13T15:37:02.071Z,20
2017-09-13T15:38:12.624Z,25
2017-09-13T15:39:22.347Z,25
2017-09-13T15:40:32.685Z,25
2017-09-13T15:41:42.421Z,25
2017-09-13T15:42:52.782Z,25
2017-09-13T15:44:02.552Z,25
2017-09-13T15:45:13.472Z,20
2017-09-13T15:46:23.840Z,15
2017-09-13T15:47:34.212Z,15
2017-09-13T15:48:44.575Z,15
2017-09-13T15:49:54.674Z,15
2017-09-13T15:51:05.050Z,10
2017-09-13T15:52:15.407Z,10
2017-09-13T15:53:25.763Z,10
2017-09-13T15:54:36.145Z,10
2017-09-13T15:55:46.282Z,10
2017-09-13T15:56:56.637Z,10
2017-09-13T15:58:06.991Z,10
2017-09-13T15:59:17.349Z,10
2017-09-13T16:00:27.713Z,10
2017-09-13T16:01:37.821Z,10
2017-09-13T16:02:48.163Z,10
2017-09-13T16:03:58.530Z,10
2017-09-13T16:05:08.883Z,10
2017-09-13T16:06:19.269Z,10
2017-09-13T16:07:29.764Z,10
2017-09-13T16:08:40.114Z,10
2017-09-13T16:09:50.719Z,10
2017-09-13T16:11:00.765Z,5
2017-09-13T16:12:11.144Z,5
2017-09-13T16:13:21.293Z,5
2017-09-13T16:14:31.659Z,5
2017-09-13T16:15:41.392Z,5
2017-09-13T16:16:51.127Z,5
2017-09-13T16:18:01.183Z,5
2017-09-13T16:19:11.801Z,5
2017-09-13T16:20:21.515Z,5
2017-09-13T16:21:31.880Z,5
2017-09-13T16:22:42.235Z,5
2017-09-13T16:23:52.611Z,5
2017-09-13T16:25:03.022Z,5
2017-09-13T16:26:13.041Z,5
2017-09-13T16:27:23.453Z,5
2017-09-13T16:28:33.500Z,5
2017-09-13T16:29:43.532Z,5
2017-09-13T16:30:53.964Z,5
2017-09-13T16:32:04.326Z,5
2017-09-13T16:33:14.368Z,0
2017-09-13T16:34:24.743Z,0
2017-09-13T16:35:35.110Z,0
2017-09-13T16:36:45.514Z,0
2017-09-13T16:37:54.935Z,0
2017-09-13T16:39:05.304Z,0
2017-09-13T16:40:15.664Z,0
2017-09-13T16:41:26.030Z,0
2017-09-13T16:42:36.129Z,0
2017-09-13T16:43:46.156Z,0
2017-09-13T16:44:56.496Z,0
2017-09-13T16:46:06.545Z,0
2017-09-13T16:47:16.920Z,5
2017-09-13T16:48:27.290Z,5
2017-09-13T16:49:37.654Z,5
2017-09-13T16:50:47.701Z,5
2017-09-13T16:51:58.055Z,0
2017-09-13T16:53:08.089Z,0
2017-09-13T16:54:18.464Z,0
2017-09-13T16:55:28.832Z,0
2017-09-13T16:56:39.205Z,0
2017-09-13T16:57:49.577Z,0
2017-09-13T16:58:59.943Z,0
2017-09-13T17:00:10.365Z,0
2017-09-13T17:01:20.731Z,0
2017-09-13T17:02:30.797Z,0
2017-09-13T17:03:42.188Z,0
2017-09-13T17:06:18.998Z,0
2017-09-13T17:07:29.411Z,0
2017-09-13T17:08:39.479Z,0
2017-09-13T17:09:49.852Z,0
2017-09-13T17:11:00.221Z,0
2017-09-13T17:12:10.642Z,0